Time;durP1;ratioP1;P1;durP2;ratioP2;P2;SDS_P1;SDS_P2;PMS_P1;PMS_P2;Temp;Humidity;BMP_temperature;BMP_pressure;BME280_temperature;BME280_humidity;BME280_pressure;Samples;Min_cycle;Max_cycle;Signal;HPM_P1;HPM_P2
2022/11/21 00:00:48;;;;;;;2.20;0.83;;;5.30;99.90;;;;;;5031469;28;20190;-86
2022/11/21 00:03:14;;;;;;;1.07;0.60;;;5.20;99.90;;;;;;5031635;28;20183;-86
2022/11/21 00:05:42;;;;;;;1.67;0.60;;;5.20;99.90;;;;;;5031538;28;20204;-86
2022/11/21 00:08:10;;;;;;;1.00;0.70;;;5.20;99.90;;;;;;5031383;28;20295;-87
2022/11/21 00:10:37;;;;;;;1.10;0.80;;;5.20;99.90;;;;;;5031615;28;20276;-87
2022/11/21 00:13:04;;;;;;;0.73;0.63;;;5.30;99.90;;;;;;5033089;28;20178;-87
2022/11/21 00:15:30;;;;;;;1.30;0.90;;;5.30;99.90;;;;;;5031473;28;20202;-87
2022/11/21 00:18:06;;;;;;;1.30;0.87;;;5.30;99.90;;;;;;5031084;28;20189;-87
2022/11/21 00:20:34;;;;;;;1.67;0.73;;;5.20;99.90;;;;;;5031739;28;20193;-87
2022/11/21 00:23:00;;;;;;;1.10;0.80;;;5.20;99.90;;;;;;5031499;28;20185;-86
2022/11/21 00:25:26;;;;;;;1.47;0.80;;;5.20;99.90;;;;;;5031296;28;20223;-87
2022/11/21 00:27:52;;;;;;;2.33;0.63;;;5.20;99.90;;;;;;5031150;28;20210;-87
2022/11/21 00:30:18;;;;;;;1.60;0.90;;;5.20;99.90;;;;;;5031158;28;20675;-87
2022/11/21 00:32:43;;;;;;;1.33;0.80;;;5.20;99.90;;;;;;5031379;28;20175;-87
2022/11/21 00:35:09;;;;;;;2.17;1.00;;;5.10;99.90;;;;;;5031151;28;20254;-86
2022/11/21 00:37:35;;;;;;;3.60;1.47;;;5.10;99.90;;;;;;5031386;28;20182;-86
2022/11/21 00:40:01;;;;;;;1.90;1.17;;;5.10;99.90;;;;;;5031354;28;20263;-86
2022/11/21 00:42:27;;;;;;;2.00;1.00;;;5.10;99.90;;;;;;5031312;28;20188;-87
2022/11/21 00:44:53;;;;;;;2.17;1.20;;;5.10;99.90;;;;;;5031006;28;20259;-86
2022/11/21 00:47:19;;;;;;;1.77;1.20;;;5.00;99.90;;;;;;5030974;28;20188;-86
2022/11/21 00:49:45;;;;;;;2.60;1.47;;;5.00;99.90;;;;;;5031217;28;20198;-86
2022/11/21 00:52:11;;;;;;;2.20;0.87;;;5.00;99.90;;;;;;5032415;28;20177;-86
2022/11/21 00:54:36;;;;;;;2.73;1.07;;;5.00;99.90;;;;;;5031348;28;20197;-86
2022/11/21 00:57:02;;;;;;;1.40;0.80;;;5.00;99.90;;;;;;5031176;28;20229;-86
2022/11/21 00:59:31;;;;;;;2.90;1.00;;;4.90;99.90;;;;;;5033818;28;20208;-86
2022/11/21 01:01:59;;;;;;;1.63;0.80;;;4.90;99.90;;;;;;5035199;28;20180;-86
2022/11/21 01:04:29;;;;;;;3.63;0.97;;;4.90;99.90;;;;;;5034816;28;20196;-86
2022/11/21 01:06:54;;;;;;;2.60;1.00;;;4.90;99.90;;;;;;5034901;28;20201;-86
2022/11/21 01:09:20;;;;;;;2.17;0.80;;;4.90;99.90;;;;;;5034830;28;20207;-86
2022/11/21 01:11:46;;;;;;;1.97;0.90;;;5.00;99.90;;;;;;5035027;28;20183;-86
2022/11/21 01:14:12;;;;;;;4.00;1.00;;;5.00;99.90;;;;;;5036175;28;20297;-86
2022/11/21 01:16:38;;;;;;;3.07;0.93;;;5.00;99.90;;;;;;5035020;28;20225;-86
2022/11/21 01:19:04;;;;;;;1.47;0.97;;;5.10;99.90;;;;;;5034609;28;20178;-87
2022/11/21 01:21:30;;;;;;;4.63;1.10;;;5.10;99.90;;;;;;5051489;28;20197;-86
2022/11/21 01:23:59;;;;;;;2.63;1.03;;;5.00;99.90;;;;;;5034420;28;20177;-86
2022/11/21 01:26:27;;;;;;;1.40;1.03;;;5.10;99.90;;;;;;5051159;28;20206;-87
2022/11/21 01:28:54;;;;;;;1.30;1.03;;;5.10;99.90;;;;;;5034236;28;20207;-87
2022/11/21 01:31:25;;;;;;;5.23;1.20;;;5.10;99.90;;;;;;5034498;28;20180;-86
2022/11/21 01:33:52;;;;;;;1.40;1.10;;;5.10;99.90;;;;;;5034786;28;20225;-86
2022/11/21 01:36:20;;;;;;;4.27;0.93;;;5.10;99.90;;;;;;5031961;28;20227;-86
2022/11/21 01:38:48;;;;;;;2.23;0.97;;;5.10;99.90;;;;;;5031166;28;20181;-86
2022/11/21 01:41:17;;;;;;;2.10;0.80;;;5.20;99.90;;;;;;5014739;28;20187;-86
2022/11/21 01:43:43;;;;;;;3.47;1.40;;;5.20;99.90;;;;;;5014465;28;20182;-87
2022/11/21 01:46:22;;;;;;;2.07;0.97;;;5.20;99.90;;;;;;5030910;28;20207;-86
2022/11/21 01:48:54;;;;;;;4.93;0.93;;;5.20;99.90;;;;;;5030752;28;20195;-86
2022/11/21 01:51:45;;;;;;;2.50;1.10;;;5.20;99.90;;;;;;5019938;28;20521;-86
2022/11/21 01:54:31;;;;;;;3.23;1.13;;;5.30;99.90;;;;;;5013950;28;20284;-87
2022/11/21 01:57:07;;;;;;;1.73;1.20;;;5.30;99.90;;;;;;5034090;28;20202;-87
2022/11/21 01:59:48;;;;;;;3.87;1.10;;;5.30;99.90;;;;;;5017879;28;20187;-86
2022/11/21 02:02:17;;;;;;;4.13;1.00;;;5.30;99.90;;;;;;5034352;28;20203;-86
2022/11/21 02:04:44;;;;;;;5.10;1.30;;;5.30;99.90;;;;;;5035727;28;20206;-87
2022/11/21 02:07:12;;;;;;;3.63;1.20;;;5.30;99.90;;;;;;5033787;28;20187;-87
2022/11/21 02:09:41;;;;;;;3.77;0.90;;;5.30;99.90;;;;;;5033914;28;20694;-87
2022/11/21 02:12:21;;;;;;;4.73;1.17;;;5.30;99.90;;;;;;5034258;28;20174;-86
2022/11/21 02:14:47;;;;;;;7.73;1.53;;;5.30;99.90;;;;;;5034552;28;20195;-87
2022/11/21 02:17:13;;;;;;;2.70;0.90;;;5.30;99.90;;;;;;5034141;28;20177;-87
2022/11/21 02:19:54;;;;;;;2.57;0.90;;;5.30;99.90;;;;;;5034243;28;20190;-87
2022/11/21 02:22:43;;;;;;;5.63;1.20;;;5.30;99.90;;;;;;5034208;28;20550;-87
2022/11/21 02:25:25;;;;;;;3.83;1.20;;;5.30;99.90;;;;;;5034047;28;20210;-87
2022/11/21 02:27:57;;;;;;;2.80;1.00;;;5.30;99.90;;;;;;5034258;28;20214;-86
2022/11/21 02:30:26;;;;;;;1.23;0.83;;;5.40;99.90;;;;;;5034447;28;20179;-86
2022/11/21 02:32:52;;;;;;;1.83;1.23;;;5.30;99.90;;;;;;5034207;28;20185;-86
2022/11/21 02:35:18;;;;;;;4.47;1.30;;;5.30;99.90;;;;;;5033624;28;20207;-86
2022/11/21 02:37:57;;;;;;;4.77;1.00;;;5.40;99.90;;;;;;5033772;28;20208;-86
2022/11/21 02:40:26;;;;;;;4.13;1.30;;;5.40;99.90;;;;;;5018094;28;20631;-86
2022/11/21 02:43:16;;;;;;;1.53;0.90;;;5.40;99.90;;;;;;5050449;28;20186;-86
2022/11/21 02:45:44;;;;;;;3.53;1.20;;;5.30;99.90;;;;;;5033469;28;20216;-86
2022/11/21 02:48:11;;;;;;;4.20;1.47;;;5.30;99.90;;;;;;5032995;28;20298;-87
2022/11/21 02:50:38;;;;;;;3.03;0.80;;;5.30;99.90;;;;;;5033868;28;20177;-86
2022/11/21 02:53:06;;;;;;;3.17;1.00;;;5.30;99.90;;;;;;5034389;28;20195;-86
2022/11/21 02:55:33;;;;;;;3.20;1.10;;;5.30;99.90;;;;;;5033481;28;20209;-86
2022/11/21 02:57:59;;;;;;;3.13;1.10;;;5.30;99.90;;;;;;5033871;28;20172;-86
2022/11/21 03:00:24;;;;;;;2.57;0.97;;;5.30;99.90;;;;;;5034038;28;20180;-87
2022/11/21 03:02:52;;;;;;;4.73;1.10;;;5.30;99.90;;;;;;5033924;28;20203;-86
2022/11/21 03:05:19;;;;;;;4.40;1.10;;;5.30;99.90;;;;;;5033573;28;20675;-87
2022/11/21 03:07:45;;;;;;;3.40;1.53;;;5.30;99.90;;;;;;5033739;28;20291;-86
2022/11/21 03:10:12;;;;;;;2.13;0.97;;;5.30;99.90;;;;;;5034072;28;20213;-86
2022/11/21 03:12:39;;;;;;;2.53;1.13;;;5.30;99.90;;;;;;5034089;28;20189;-86
2022/11/21 03:15:07;;;;;;;2.77;1.00;;;5.30;99.90;;;;;;5033735;28;20207;-86
2022/11/21 03:17:33;;;;;;;2.87;0.90;;;5.30;99.90;;;;;;5033298;28;20175;-86
2022/11/21 03:19:59;;;;;;;1.63;0.90;;;5.30;99.90;;;;;;5034162;28;20174;-86
2022/11/21 03:22:27;;;;;;;4.23;0.80;;;5.30;99.90;;;;;;5017010;28;20181;-86
2022/11/21 03:24:53;;;;;;;1.70;0.90;;;5.30;99.90;;;;;;5033760;28;20216;-86
2022/11/21 03:27:19;;;;;;;0.83;0.63;;;5.30;99.90;;;;;;5032449;28;20181;-86
2022/11/21 03:29:45;;;;;;;1.43;0.50;;;5.30;99.90;;;;;;5033224;28;20175;-86
2022/11/21 03:32:14;;;;;;;1.53;0.70;;;5.30;99.90;;;;;;5016421;28;20186;-86
2022/11/21 03:34:40;;;;;;;0.70;0.60;;;5.30;99.90;;;;;;5033773;28;20207;-86
2022/11/21 03:37:06;;;;;;;0.63;0.50;;;5.20;99.90;;;;;;5015962;28;20178;-86
2022/11/21 03:39:32;;;;;;;1.00;0.60;;;5.20;99.90;;;;;;5032910;28;20189;-86
2022/11/21 03:41:58;;;;;;;2.47;0.80;;;5.20;99.90;;;;;;5016275;28;20544;-86
2022/11/21 03:44:24;;;;;;;1.57;0.77;;;5.10;99.90;;;;;;5032271;28;20189;-86
2022/11/21 03:46:50;;;;;;;0.60;0.50;;;5.10;99.90;;;;;;5032222;28;20172;-86
2022/11/21 03:49:16;;;;;;;1.20;0.50;;;5.10;99.90;;;;;;5032168;28;20216;-86
2022/11/21 03:51:43;;;;;;;2.10;1.30;;;5.00;99.90;;;;;;5031822;28;20210;-86
2022/11/21 03:54:10;;;;;;;0.90;0.60;;;5.00;99.90;;;;;;5031994;28;20178;-86
2022/11/21 03:56:38;;;;;;;1.53;0.60;;;4.90;99.90;;;;;;5031724;28;20203;-86
2022/11/21 03:59:04;;;;;;;2.27;0.87;;;4.90;99.90;;;;;;5031792;28;20196;-86
2022/11/21 04:01:30;;;;;;;1.07;0.70;;;4.90;99.90;;;;;;5032035;28;20183;-86
2022/11/21 04:03:57;;;;;;;1.43;0.50;;;4.80;99.90;;;;;;5015550;28;20191;-87
2022/11/21 04:06:23;;;;;;;2.43;0.80;;;4.80;99.90;;;;;;5032530;28;20237;-87
2022/11/21 04:08:49;;;;;;;4.00;1.50;;;4.80;99.90;;;;;;5049420;28;20600;-86
2022/11/21 04:11:15;;;;;;;3.30;1.90;;;4.80;99.90;;;;;;5032266;28;20184;-86
2022/11/21 04:13:41;;;;;;;1.67;1.00;;;4.70;99.90;;;;;;5032290;28;20189;-86
2022/11/21 04:16:07;;;;;;;1.07;0.90;;;4.70;99.90;;;;;;5032596;28;20195;-86
2022/11/21 04:18:34;;;;;;;1.30;1.07;;;4.70;99.90;;;;;;5032700;28;20190;-86
2022/11/21 04:21:03;;;;;;;1.00;0.80;;;4.60;99.90;;;;;;5032095;28;20525;-86
2022/11/21 04:23:29;;;;;;;0.70;0.70;;;4.60;99.90;;;;;;5034005;28;20189;-86
2022/11/21 04:25:55;;;;;;;1.07;0.70;;;4.60;99.90;;;;;;5033911;28;20222;-87
2022/11/21 04:28:21;;;;;;;2.10;1.00;;;4.60;99.90;;;;;;5032354;28;20206;-86
2022/11/21 04:31:04;;;;;;;2.50;1.00;;;4.60;99.90;;;;;;5031963;28;20189;-86
2022/11/21 04:33:30;;;;;;;1.17;1.00;;;4.60;99.90;;;;;;5034156;28;20173;-86
2022/11/21 04:35:57;;;;;;;1.43;0.80;;;4.50;99.90;;;;;;5039686;28;20198;-86
2022/11/21 04:38:23;;;;;;;0.70;0.50;;;4.50;99.90;;;;;;5043605;28;20259;-87
2022/11/21 04:40:56;;;;;;;0.60;0.60;;;4.40;99.90;;;;;;5041647;28;20315;-88
2022/11/21 04:43:50;;;;;;;0.70;0.60;;;4.40;99.90;;;;;;5058381;28;20190;-87
2022/11/21 04:46:26;;;;;;;1.43;0.60;;;4.40;99.90;;;;;;5041381;28;20284;-87
2022/11/21 04:48:55;;;;;;;0.50;0.50;;;4.40;99.90;;;;;;5057998;28;20198;-87
2022/11/21 04:51:21;;;;;;;0.70;0.70;;;4.40;99.90;;;;;;5041466;28;20207;-88
2022/11/21 04:53:50;;;;;;;0.67;0.60;;;4.40;99.90;;;;;;5057859;28;20174;-87
2022/11/21 04:56:16;;;;;;;1.07;0.97;;;4.40;99.90;;;;;;5028285;28;20341;-87
2022/11/21 04:58:43;;;;;;;1.07;0.90;;;4.40;99.90;;;;;;5002924;28;20274;-87
2022/11/21 05:01:09;;;;;;;2.10;1.23;;;4.30;99.90;;;;;;5025085;28;20171;-87
2022/11/21 05:03:35;;;;;;;2.63;1.70;;;4.30;99.90;;;;;;5021104;28;20189;-87
2022/11/21 05:06:02;;;;;;;2.10;1.43;;;4.30;99.90;;;;;;5023268;28;20203;-87
2022/11/21 05:08:28;;;;;;;1.47;1.10;;;4.20;99.90;;;;;;5017830;28;20215;-87
2022/11/21 05:13:38;;;;;;;0.90;0.80;;;4.20;99.90;;;;;;5037664;28;20189;-87
2022/11/21 05:16:04;;;;;;;0.60;0.60;;;4.10;99.90;;;;;;5021182;28;20190;-87
2022/11/21 05:18:30;;;;;;;0.67;0.63;;;4.10;99.90;;;;;;5037774;28;20189;-87
2022/11/21 05:20:56;;;;;;;11.53;3.87;;;4.10;99.90;;;;;;5037430;28;20190;-87
2022/11/21 05:23:22;;;;;;;3.70;2.07;;;4.10;99.90;;;;;;5037727;28;20186;-87
2022/11/21 05:25:48;;;;;;;2.87;1.80;;;4.10;99.90;;;;;;5037369;28;20300;-87
2022/11/21 05:28:14;;;;;;;2.90;1.87;;;4.10;99.90;;;;;;5037344;28;20300;-87
2022/11/21 05:30:40;;;;;;;6.13;2.17;;;4.00;99.90;;;;;;5037605;28;20195;-87
2022/11/21 05:33:08;;;;;;;2.90;1.70;;;4.00;99.90;;;;;;5037506;28;20179;-87
2022/11/21 05:35:34;;;;;;;1.50;1.00;;;4.10;99.90;;;;;;5037684;28;20199;-87
2022/11/21 05:38:00;;;;;;;1.13;0.80;;;4.00;99.90;;;;;;5037213;28;20174;-87
2022/11/21 05:40:26;;;;;;;0.80;0.80;;;4.00;99.90;;;;;;5042719;28;20189;-87
2022/11/21 05:45:39;;;;;;;1.23;1.23;;;4.00;99.90;;;;;;5040800;28;20206;-87
2022/11/21 05:48:08;;;;;;;1.40;1.30;;;4.10;99.90;;;;;;5017484;28;20264;-88
2022/11/21 05:50:35;;;;;;;1.50;1.40;;;4.10;99.90;;;;;;5034691;28;20179;-88
2022/11/21 05:53:05;;;;;;;1.33;1.23;;;4.00;99.90;;;;;;5001256;28;20179;-88
2022/11/21 05:55:33;;;;;;;1.70;1.53;;;4.00;99.90;;;;;;4997865;28;20274;-88
2022/11/21 05:58:00;;;;;;;2.00;1.60;;;4.00;99.90;;;;;;5014319;28;20655;-88
2022/11/21 06:00:27;;;;;;;1.27;1.13;;;4.00;99.90;;;;;;5030022;28;20277;-89
2022/11/21 06:05:37;;;;;;;1.23;1.13;;;3.90;99.90;;;;;;5033680;28;20300;-88
2022/11/21 06:08:03;;;;;;;0.90;0.90;;;3.90;99.90;;;;;;5033068;28;20289;-88
2022/11/21 06:10:29;;;;;;;1.07;1.07;;;3.90;99.90;;;;;;5033977;28;20174;-89
2022/11/21 06:12:59;;;;;;;0.43;0.43;;;3.80;99.90;;;;;;5017447;28;20179;-88
2022/11/21 06:15:26;;;;;;;0.80;0.50;;;3.80;99.90;;;;;;5013700;28;20214;-89
2022/11/21 06:17:52;;;;;;;1.60;1.20;;;3.80;99.90;;;;;;5014533;28;20183;-88
2022/11/21 06:20:18;;;;;;;1.93;1.70;;;3.80;99.90;;;;;;5014373;28;20667;-88
2022/11/21 06:22:44;;;;;;;1.63;1.17;;;3.80;99.90;;;;;;5013601;28;20273;-89
2022/11/21 06:25:10;;;;;;;1.27;1.17;;;3.80;99.90;;;;;;5014188;28;20215;-89
2022/11/21 06:27:36;;;;;;;1.93;1.67;;;3.80;99.90;;;;;;5014858;28;20187;-89
2022/11/21 06:30:01;;;;;;;1.33;1.20;;;3.80;99.90;;;;;;4997955;28;20202;-89
2022/11/21 06:32:27;;;;;;;1.63;1.17;;;3.90;99.90;;;;;;5012301;28;20174;-89
2022/11/21 06:34:53;;;;;;;1.43;1.20;;;3.90;99.90;;;;;;5017525;28;20202;-88
2022/11/21 06:37:19;;;;;;;2.17;1.70;;;4.00;99.90;;;;;;5049740;28;20174;-89
2022/11/21 06:39:45;;;;;;;1.27;1.10;;;4.00;99.90;;;;;;5033260;28;20261;-89
2022/11/21 06:42:11;;;;;;;0.80;0.80;;;4.00;99.90;;;;;;5024584;28;20179;-88
2022/11/21 06:44:36;;;;;;;0.87;0.70;;;4.10;99.90;;;;;;4997256;28;20286;-88
2022/11/21 06:47:02;;;;;;;2.33;0.90;;;4.10;99.90;;;;;;4997548;28;20187;-88
2022/11/21 06:49:28;;;;;;;1.50;1.00;;;4.10;99.90;;;;;;4997563;28;20207;-88
2022/11/21 06:51:54;;;;;;;0.77;0.70;;;4.20;99.90;;;;;;4997388;28;20180;-89
2022/11/21 06:54:20;;;;;;;3.80;0.90;;;4.20;99.90;;;;;;4997434;28;20180;-88
2022/11/21 06:56:46;;;;;;;0.70;0.70;;;4.20;99.90;;;;;;4997077;28;20184;-88
2022/11/21 06:59:11;;;;;;;1.33;1.10;;;4.20;99.90;;;;;;4997701;28;20190;-88
2022/11/21 07:01:37;;;;;;;1.23;0.90;;;4.20;99.90;;;;;;5016652;28;20190;-82
2022/11/21 07:04:03;;;;;;;0.80;0.60;;;4.20;99.90;;;;;;5033497;28;20277;-87
2022/11/21 07:06:30;;;;;;;1.60;0.83;;;4.10;99.90;;;;;;5032654;28;20205;-87
2022/11/21 07:08:56;;;;;;;2.20;1.20;;;4.10;99.90;;;;;;5032525;28;20207;-87
2022/11/21 07:11:22;;;;;;;2.43;1.20;;;4.10;99.90;;;;;;5032717;28;20652;-87
2022/11/21 07:13:48;;;;;;;2.23;1.00;;;4.10;99.90;;;;;;5016394;28;20184;-86
2022/11/21 07:16:14;;;;;;;1.43;1.00;;;4.20;99.90;;;;;;5005242;28;20324;-87
2022/11/21 07:18:41;;;;;;;1.10;1.00;;;4.20;99.90;;;;;;5015235;28;20179;-86
2022/11/21 07:21:08;;;;;;;2.70;0.97;;;4.30;99.90;;;;;;5005550;28;20206;-87
2022/11/21 07:23:34;;;;;;;2.50;1.20;;;4.30;99.90;;;;;;5033440;28;20184;-87
2022/11/21 07:26:02;;;;;;;1.70;1.60;;;4.30;99.90;;;;;;5032414;28;20218;-87
2022/11/21 07:28:28;;;;;;;1.30;0.90;;;4.40;99.90;;;;;;5032707;28;20297;-87
2022/11/21 07:30:56;;;;;;;2.67;1.30;;;4.40;99.90;;;;;;5032633;28;20178;-87
2022/11/21 07:33:22;;;;;;;4.43;1.20;;;4.40;99.90;;;;;;5032738;28;20185;-87
2022/11/21 07:35:48;;;;;;;5.43;1.50;;;4.50;99.90;;;;;;5032717;28;20205;-87
2022/11/21 07:38:14;;;;;;;4.10;2.27;;;4.50;99.90;;;;;;5032573;28;20177;-87
2022/11/21 07:40:40;;;;;;;6.90;2.53;;;4.60;99.90;;;;;;5030133;28;20201;-87
2022/11/21 07:43:06;;;;;;;5.87;1.97;;;4.60;99.90;;;;;;5022944;28;20246;-87
2022/11/21 07:45:33;;;;;;;3.87;1.60;;;4.70;99.90;;;;;;5026009;28;20411;-87
2022/11/21 07:48:01;;;;;;;3.80;1.60;;;4.70;99.90;;;;;;5024321;28;20204;-87
2022/11/21 07:50:27;;;;;;;6.60;2.07;;;4.70;99.90;;;;;;5018674;28;20266;-88
2022/11/21 07:53:01;;;;;;;5.87;1.70;;;4.70;99.90;;;;;;4996997;28;20183;-87
2022/11/21 07:55:28;;;;;;;2.90;1.50;;;4.80;99.90;;;;;;4996574;28;20273;-88
2022/11/21 07:58:15;;;;;;;4.13;1.80;;;4.90;99.90;;;;;;5027436;28;20285;-87
2022/11/21 08:00:43;;;;;;;3.20;1.57;;;4.90;99.90;;;;;;5012847;28;20184;-87
2022/11/21 08:03:11;;;;;;;9.33;1.83;;;5.00;99.90;;;;;;4995379;28;20196;-87
2022/11/21 08:05:41;;;;;;;2.23;1.50;;;5.10;99.90;;;;;;4996192;28;20223;-87
2022/11/21 08:08:11;;;;;;;4.23;2.00;;;5.20;99.90;;;;;;4995227;28;20294;-87
2022/11/21 08:10:39;;;;;;;6.23;1.87;;;5.30;99.90;;;;;;4996101;28;20178;-87
2022/11/21 08:13:05;;;;;;;4.47;1.60;;;5.40;99.90;;;;;;4996002;28;20185;-87
2022/11/21 08:15:31;;;;;;;4.90;1.50;;;5.50;99.90;;;;;;5011389;28;20206;-88
2022/11/21 08:17:57;;;;;;;2.53;1.57;;;5.60;99.90;;;;;;4995980;28;20283;-87
2022/11/21 08:20:23;;;;;;;5.03;1.60;;;5.80;99.90;;;;;;5002743;28;20194;-87
2022/11/21 08:22:49;;;;;;;4.30;1.40;;;5.80;99.90;;;;;;5009077;28;20177;-87
2022/11/21 08:25:15;;;;;;;3.47;1.37;;;5.90;99.90;;;;;;5014954;28;20207;-87
2022/11/21 08:27:41;;;;;;;4.70;1.40;;;5.90;99.90;;;;;;5037950;28;20309;-87
2022/11/21 08:30:09;;;;;;;6.13;1.40;;;6.00;99.90;;;;;;5029298;28;20185;-87
2022/11/21 08:32:35;;;;;;;3.90;1.30;;;6.00;99.90;;;;;;5035348;28;20179;-87
2022/11/21 08:35:02;;;;;;;5.27;2.53;;;6.00;99.90;;;;;;5040394;28;20203;-87
2022/11/21 08:37:28;;;;;;;6.43;2.27;;;6.10;99.90;;;;;;5023864;28;20189;-88
2022/11/21 08:39:57;;;;;;;6.60;1.73;;;6.20;99.90;;;;;;5031526;28;20225;-87
2022/11/21 08:42:27;;;;;;;6.47;2.37;;;6.20;99.90;;;;;;5025522;28;20672;-88
2022/11/21 08:44:54;;;;;;;3.70;2.00;;;6.30;99.90;;;;;;5040478;28;20216;-87
2022/11/21 08:47:20;;;;;;;5.00;1.87;;;6.40;99.90;;;;;;5027258;28;20201;-87
2022/11/21 08:49:47;;;;;;;6.43;2.53;;;6.50;99.90;;;;;;5014209;28;20263;-87
2022/11/21 08:52:16;;;;;;;3.83;1.50;;;6.60;99.90;;;;;;5041158;28;20181;-87
2022/11/21 08:54:43;;;;;;;4.30;1.40;;;6.70;99.90;;;;;;5031437;28;20255;-87
2022/11/21 08:57:09;;;;;;;2.37;1.00;;;6.70;99.90;;;;;;5029286;28;20256;-88
2022/11/21 08:59:35;;;;;;;2.80;1.50;;;6.70;99.90;;;;;;5031793;28;20181;-85
2022/11/21 09:02:01;;;;;;;4.17;1.57;;;6.70;99.90;;;;;;5031363;28;20236;-87
2022/11/21 09:04:28;;;;;;;2.90;1.20;;;6.60;99.90;;;;;;5028676;28;20191;-87
2022/11/21 09:07:25;;;;;;;4.43;1.17;;;6.60;99.90;;;;;;4995808;28;20682;-87
2022/11/21 09:09:51;;;;;;;3.23;1.00;;;6.50;99.90;;;;;;4995583;28;20288;-87
2022/11/21 09:12:20;;;;;;;4.53;1.40;;;6.50;99.90;;;;;;4995645;28;20287;-87
2022/11/21 09:20:14;;;;;;;2.77;1.10;;;6.70;99.90;;;;;;5035000;28;20166;-87
2022/11/21 09:22:40;;;;;;;3.13;1.00;;;6.80;99.90;;;;;;5035409;28;20197;-87
2022/11/21 09:25:07;;;;;;;6.47;2.27;;;6.90;99.90;;;;;;5010406;28;20229;-87
2022/11/21 09:27:33;;;;;;;2.60;1.60;;;7.10;99.90;;;;;;4999087;28;20180;-87
2022/11/21 09:29:59;;;;;;;6.20;1.50;;;7.20;99.90;;;;;;4999166;28;20180;-87
2022/11/21 09:32:25;;;;;;;2.17;1.27;;;7.30;99.90;;;;;;5002264;28;20251;-81
2022/11/21 09:34:51;;;;;;;3.50;1.20;;;7.40;99.90;;;;;;5036676;28;20275;-87
2022/11/21 09:37:17;;;;;;;3.07;1.00;;;7.50;99.90;;;;;;5034528;28;20288;-87
2022/11/21 09:39:43;;;;;;;4.60;1.40;;;7.60;99.90;;;;;;5034602;28;20303;-87
2022/11/21 09:42:30;;;;;;;2.90;1.07;;;7.70;99.90;;;;;;5034593;28;20209;-86
2022/11/21 09:45:12;;;;;;;3.30;1.70;;;7.70;99.90;;;;;;5051182;28;20198;-87
2022/11/21 09:47:48;;;;;;;3.43;1.60;;;7.80;99.90;;;;;;5034446;28;20193;-86
2022/11/21 09:50:14;;;;;;;5.50;1.97;;;7.90;99.90;;;;;;5034531;28;20178;-87
2022/11/21 09:53:01;;;;;;;3.77;2.23;;;8.00;99.90;;;;;;5050723;28;20200;-87
2022/11/21 09:55:33;;;;;;;5.43;1.50;;;8.10;99.90;;;;;;5034045;28;20202;-87
2022/11/21 09:58:09;;;;;;;4.23;1.13;;;8.10;99.90;;;;;;5033155;28;20295;-87
2022/11/21 10:00:35;;;;;;;5.10;1.20;;;8.00;99.90;;;;;;5034002;28;20194;-87
2022/11/21 10:03:01;;;;;;;4.80;1.67;;;8.10;99.90;;;;;;5034318;28;20178;-87
2022/11/21 10:05:39;;;;;;;4.87;1.70;;;8.10;99.90;;;;;;5034042;28;20198;-87
2022/11/21 10:08:29;;;;;;;3.17;1.30;;;8.20;99.90;;;;;;5050270;28;20190;-87
2022/11/21 10:11:10;;;;;;;7.40;1.80;;;8.20;99.90;;;;;;5033774;28;20186;-87
2022/11/21 10:13:52;;;;;;;3.13;1.70;;;8.30;99.90;;;;;;5033787;28;20184;-87
2022/11/21 10:16:29;;;;;;;7.27;1.40;;;8.30;99.90;;;;;;5033929;28;20195;-87
2022/11/21 10:19:19;;;;;;;2.73;1.10;;;8.30;99.90;;;;;;5033568;28;20189;-87
2022/11/21 10:22:18;;;;;;;3.70;1.37;;;8.40;99.90;;;;;;5033658;28;20202;-87
2022/11/21 10:25:11;;;;;;;3.00;1.10;;;8.40;99.90;;;;;;5033256;28;20229;-87
2022/11/21 10:27:50;;;;;;;3.67;1.50;;;8.50;99.90;;;;;;5033674;28;20210;-87
2022/11/21 10:30:19;;;;;;;3.70;1.53;;;8.40;99.90;;;;;;5033722;28;20172;-87
2022/11/21 10:32:53;;;;;;;5.63;1.10;;;8.40;99.90;;;;;;5033067;28;20178;-87
2022/11/21 10:35:27;;;;;;;4.30;1.30;;;8.50;99.90;;;;;;5022663;28;20206;-87
2022/11/21 10:37:59;;;;;;;2.57;1.00;;;8.50;99.90;;;;;;5029888;28;20209;-86
2022/11/21 10:40:38;;;;;;;7.83;1.60;;;8.60;99.90;;;;;;5013619;28;20206;-87
2022/11/21 10:46:10;;;;;;;5.27;1.27;;;8.70;99.90;;;;;;5029974;28;20207;-87
2022/11/21 10:48:36;;;;;;;5.60;2.57;;;8.70;99.90;;;;;;5029522;28;20246;-87
2022/11/21 10:51:11;;;;;;;2.50;1.10;;;8.70;99.90;;;;;;5015546;28;20211;-86
2022/11/21 10:56:25;;;;;;;7.43;4.03;;;8.80;99.90;;;;;;5013392;28;20199;-87
2022/11/21 10:58:54;;;;;;;4.13;2.43;;;8.80;99.90;;;;;;5032213;28;20186;-87
2022/11/21 11:01:35;;;;;;;7.17;2.50;;;8.90;99.90;;;;;;5033170;28;20281;-87
2022/11/21 11:04:09;;;;;;;5.80;2.60;;;8.80;99.90;;;;;;5013376;28;20202;-87
2022/11/21 11:06:41;;;;;;;5.37;2.33;;;8.70;99.90;;;;;;5033576;28;20178;-87
2022/11/21 11:09:22;;;;;;;9.57;4.40;;;8.50;99.90;;;;;;5032742;28;20204;-87
2022/11/21 11:11:48;;;;;;;6.30;1.90;;;8.40;99.90;;;;;;5033558;28;20171;-87
2022/11/21 11:14:32;;;;;;;4.43;1.40;;;8.40;99.90;;;;;;5032770;28;20178;-87
2022/11/21 11:16:58;;;;;;;4.17;1.30;;;8.50;99.90;;;;;;5032701;28;20193;-87
2022/11/21 11:22:42;;;;;;;5.27;1.40;;;8.70;99.90;;;;;;5049338;28;20186;-87
2022/11/21 11:25:08;;;;;;;4.90;1.50;;;8.80;99.90;;;;;;5032775;28;20216;-87
2022/11/21 11:27:36;;;;;;;3.90;1.40;;;8.80;99.90;;;;;;5032048;28;20186;-87
2022/11/21 11:30:06;;;;;;;4.43;1.30;;;8.90;99.90;;;;;;5049533;28;20210;-87
2022/11/21 11:32:37;;;;;;;3.10;1.30;;;8.90;99.90;;;;;;5032952;28;20269;-87
2022/11/21 11:35:21;;;;;;;5.43;1.30;;;8.90;99.90;;;;;;5032877;28;20207;-87
2022/11/21 11:38:03;;;;;;;5.23;1.00;;;9.10;99.90;;;;;;5050185;28;20204;-87
2022/11/21 11:40:37;;;;;;;4.80;1.30;;;9.10;99.90;;;;;;5039311;28;20174;-87
2022/11/21 11:49:16;;;;;;;4.03;1.60;;;9.30;99.90;;;;;;5012531;28;20294;-87
2022/11/21 11:52:13;;;;;;;3.97;1.20;;;9.30;99.90;;;;;;4996448;28;20188;-87
2022/11/21 11:54:47;;;;;;;5.80;1.57;;;9.30;99.90;;;;;;4996335;28;20203;-87
2022/11/21 11:57:17;;;;;;;6.67;2.10;;;9.40;99.90;;;;;;5012497;28;20170;-87
2022/11/21 11:59:53;;;;;;;5.97;1.90;;;9.40;99.90;;;;;;4996209;28;20180;-87
2022/11/21 12:02:41;;;;;;;6.13;1.47;;;9.40;99.90;;;;;;4996383;28;20225;-88
2022/11/21 12:05:16;;;;;;;4.60;1.80;;;9.30;99.90;;;;;;5003911;28;20209;-87
2022/11/21 12:08:08;;;;;;;5.17;1.93;;;9.20;99.90;;;;;;5032784;28;20232;-87
2022/11/21 12:13:42;;;;;;;4.00;1.40;;;9.30;99.90;;;;;;5032402;28;20257;-87
2022/11/21 12:16:12;;;;;;;7.43;1.70;;;9.40;99.90;;;;;;5032014;28;20202;-87
2022/11/21 12:19:06;;;;;;;2.80;1.30;;;9.50;99.90;;;;;;5032172;28;20190;-88
2022/11/21 12:21:32;;;;;;;5.47;1.87;;;9.50;99.90;;;;;;5015917;28;20177;-88
2022/11/21 12:24:00;;;;;;;6.07;2.07;;;9.50;99.90;;;;;;5031921;28;20183;-87
2022/11/21 12:26:45;;;;;;;7.73;2.30;;;9.50;99.90;;;;;;5032239;28;20222;-87
2022/11/21 12:29:33;;;;;;;5.67;2.10;;;9.50;99.90;;;;;;5031968;28;20211;-88
2022/11/21 12:32:16;;;;;;;6.37;2.33;;;9.60;99.90;;;;;;5012446;28;20178;-87
2022/11/21 12:35:19;;;;;;;4.50;1.67;;;9.60;99.90;;;;;;5012518;28;20226;-87
2022/11/21 12:37:53;;;;;;;5.60;1.40;;;9.60;99.90;;;;;;5025951;28;20178;-87
2022/11/21 12:40:25;;;;;;;2.87;1.30;;;9.60;99.90;;;;;;5031752;28;20245;-87
2022/11/21 12:43:03;;;;;;;6.63;1.30;;;9.60;99.90;;;;;;5032101;28;20647;-87
2022/11/21 12:45:43;;;;;;;7.77;1.40;;;9.50;99.90;;;;;;5031820;28;20734;-87
2022/11/21 12:54:37;;;;;;;6.40;1.40;;;9.60;99.90;;;;;;5029306;28;20187;-87
2022/11/21 12:57:13;;;;;;;3.10;1.23;;;9.70;99.90;;;;;;5035632;28;20178;-88
2022/11/21 13:00:07;;;;;;;5.07;1.63;;;9.70;99.90;;;;;;5036091;28;20240;-87
2022/11/21 13:03:01;;;;;;;5.77;1.80;;;9.70;99.90;;;;;;5032740;28;20167;-87
2022/11/21 13:05:31;;;;;;;5.27;1.50;;;9.60;99.90;;;;;;5000493;28;20195;-87
2022/11/21 13:08:11;;;;;;;5.50;1.50;;;9.50;99.90;;;;;;5019482;28;20178;-87
2022/11/21 13:11:57;;;;;;;4.27;1.30;;;9.60;99.90;;;;;;5035290;28;20175;-87
2022/11/21 13:13:40;;;;;;;3.07;1.70;;;9.80;99.90;;;;;;5036595;28;20178;-87
2022/11/21 13:16:10;;;;;;;3.43;1.33;;;10.00;99.90;;;;;;5035360;28;20226;-87
2022/11/21 13:18:43;;;;;;;4.50;1.27;;;10.10;99.90;;;;;;5034992;28;20276;-85
2022/11/21 13:21:46;;;;;;;4.03;1.50;;;10.30;99.90;;;;;;5035917;28;20179;-87
2022/11/21 13:24:44;;;;;;;4.47;1.40;;;10.50;99.90;;;;;;5033332;28;20212;-87
2022/11/21 13:27:37;;;;;;;5.07;1.57;;;10.70;99.90;;;;;;5034168;28;20190;-87
2022/11/21 13:30:05;;;;;;;5.53;1.80;;;10.50;99.90;;;;;;5034396;28;20234;-87
2022/11/21 13:32:38;;;;;;;6.00;1.60;;;10.50;99.90;;;;;;5034601;28;20172;-87
2022/11/21 13:35:13;;;;;;;4.70;1.90;;;10.40;99.90;;;;;;5028912;28;20227;-87
2022/11/21 13:37:48;;;;;;;5.07;2.07;;;10.30;99.90;;;;;;5013333;28;20193;-88
2022/11/21 13:42:56;;;;;;;2.33;1.20;;;10.20;99.90;;;;;;5017862;28;20186;-87
2022/11/21 13:43:29;;;;;;;2.43;1.30;;;10.00;99.90;;;;;;5018458;28;20220;-87
2022/11/21 13:45:57;;;;;;;3.97;1.30;;;9.90;99.90;;;;;;5017916;28;20218;-88
2022/11/21 13:48:55;;;;;;;4.03;1.40;;;9.90;99.90;;;;;;5011754;28;20301;-87
2022/11/21 13:51:49;;;;;;;4.63;1.20;;;9.80;99.90;;;;;;5014824;28;20194;-87
2022/11/21 13:54:24;;;;;;;4.27;1.50;;;9.90;99.90;;;;;;4998352;28;20234;-88